Time;durP1;ratioP1;P1;durP2;ratioP2;P2;SDS_P1;SDS_P2;PMS_P1;PMS_P2;Temp;Humidity;BMP_temperature;BMP_pressure;BME280_temperature;BME280_humidity;BME280_pressure;Samples;Min_cycle;Max_cycle;Signal;HPM_P1;HPM_P2
2022/02/13 00:00:29;;;;;;;;;;;;;;;-3.69;100.00;101248.76;1727253;82;20139;-70
2022/02/13 00:03:00;;;;;;;;;;;;;;;-3.69;100.00;101253.63;1763975;81;20133;-70
2022/02/13 00:05:36;;;;;;;;;;;;;;;-3.69;100.00;101256.30;1711108;83;20114;-70
2022/02/13 00:08:01;;;;;;;;;;;;;;;-3.68;100.00;101247.74;1763412;81;20448;-71
2022/02/13 00:10:31;;;;;;;;;;;;;;;-3.70;100.00;101253.30;1726376;82;21763;-70
2022/02/13 00:13:01;;;;;;;;;;;;;;;-3.71;100.00;101257.50;1715740;82;20186;-69
2022/02/13 00:15:36;;;;;;;;;;;;;;;-3.75;100.00;101253.00;1730779;82;20083;-69
2022/02/13 00:18:06;;;;;;;;;;;;;;;-3.75;100.00;101244.95;1763313;81;20199;-69
2022/02/13 00:20:35;;;;;;;;;;;;;;;-3.79;100.00;101244.98;1729003;82;20162;-69
2022/02/13 00:23:03;;;;;;;;;;;;;;;-3.84;100.00;101247.37;1755625;81;20113;-71
2022/02/13 00:25:35;;;;;;;;;;;;;;;-3.90;100.00;101253.46;1719493;82;20508;-69
2022/02/13 00:28:13;;;;;;;;;;;;;;;-3.96;100.00;101243.95;1723609;82;20135;-69
2022/02/13 00:30:38;;;;;;;;;;;;;;;-4.00;100.00;101251.02;1713602;83;20114;-69
2022/02/13 00:33:04;;;;;;;;;;;;;;;-4.01;100.00;101243.98;1698732;83;20087;-69
2022/02/13 00:35:33;;;;;;;;;;;;;;;-4.01;100.00;101250.69;1736810;82;21177;-70
2022/02/13 00:37:59;;;;;;;;;;;;;;;-3.97;100.00;101246.31;1711786;83;20110;-71
2022/02/13 00:40:25;;;;;;;;;;;;;;;-3.95;100.00;101244.28;1707154;84;20086;-70
2022/02/13 00:42:56;;;;;;;;;;;;;;;-3.94;100.00;101243.27;1682815;84;20117;-71
2022/02/13 00:45:36;;;;;;;;;;;;;;;-3.99;100.00;101245.14;1707032;84;20431;-71
2022/02/13 00:47:57;;;;;;;;;;;;;;;-4.07;100.00;101238.53;1703412;84;21176;-71
2022/02/13 00:50:30;;;;;;;;;;;;;;;-4.14;100.00;101243.77;1692891;83;20081;-68
2022/02/13 00:53:00;;;;;;;;;;;;;;;-4.19;100.00;101244.81;1740487;80;20144;-69
2022/02/13 00:55:27;;;;;;;;;;;;;;;-4.23;100.00;101242.16;1775058;80;20104;-68
2022/02/13 00:57:58;;;;;;;;;;;;;;;-4.25;100.00;101244.19;1774736;81;20093;-70
2022/02/13 01:00:27;;;;;;;;;;;;;;;-4.25;100.00;101243.34;1774714;81;21171;-70
2022/02/13 01:02:55;;;;;;;;;;;;;;;-4.24;100.00;101243.17;1751176;82;20083;-70
2022/02/13 01:05:24;;;;;;;;;;;;;;;-4.26;100.00;101240.34;1747300;81;20247;-71
2022/02/13 01:07:58;;;;;;;;;;;;;;;-4.29;100.00;101242.03;1751454;81;20098;-70
2022/02/13 01:10:31;;;;;;;;;;;;;;;-4.39;100.00;101235.05;1753635;82;20430;-69
2022/02/13 01:12:58;;;;;;;;;;;;;;;-4.46;100.00;101232.75;1752782;82;21149;-69
2022/02/13 01:15:28;;;;;;;;;;;;;;;-4.50;100.00;101237.30;1743978;81;20121;-69
2022/02/13 01:17:58;;;;;;;;;;;;;;;-4.52;100.00;101237.98;1724770;82;20083;-69
2022/02/13 01:20:32;;;;;;;;;;;;;;;-4.53;100.00;101221.06;1724332;82;20099;-69
2022/02/13 01:23:01;;;;;;;;;;;;;;;-4.51;100.00;101220.88;1751273;82;20135;-69
2022/02/13 01:25:28;;;;;;;;;;;;;;;-4.48;100.00;101223.22;1723982;82;20075;-70
2022/02/13 01:27:56;;;;;;;;;;;;;;;-4.50;100.00;101218.03;1722728;82;20130;-71
2022/02/13 01:30:22;;;;;;;;;;;;;;;-4.51;100.00;101216.86;1754193;81;20192;-71
2022/02/13 01:32:49;;;;;;;;;;;;;;;-4.53;100.00;101218.89;1753429;82;20143;-71
2022/02/13 01:35:16;;;;;;;;;;;;;;;-4.53;100.00;101207.66;1751198;82;20123;-71
2022/02/13 01:37:45;;;;;;;;;;;;;;;-4.48;100.00;101206.63;1742802;82;22398;-71
2022/02/13 01:40:16;;;;;;;;;;;;;;;-4.50;100.00;101205.97;1751295;82;20470;-72
2022/02/13 01:42:46;;;;;;;;;;;;;;;-4.63;100.00;101211.61;1751211;82;20118;-71
2022/02/13 01:45:18;;;;;;;;;;;;;;;-4.73;100.00;101218.52;1751109;82;21275;-72
2022/02/13 01:47:47;;;;;;;;;;;;;;;-4.76;100.00;101221.05;1751045;82;20094;-71
2022/02/13 01:50:18;;;;;;;;;;;;;;;-4.75;100.00;101220.04;1732040;82;21167;-71
2022/02/13 01:52:50;;;;;;;;;;;;;;;-4.72;100.00;101229.06;1727280;82;20186;-71
2022/02/13 01:55:22;;;;;;;;;;;;;;;-4.70;100.00;101225.70;1725550;82;20086;-71
2022/02/13 01:57:53;;;;;;;;;;;;;;;-4.67;100.00;101230.72;1747744;82;20099;-70
2022/02/13 02:00:26;;;;;;;;;;;;;;;-4.65;100.00;101219.82;1751245;82;20122;-71
2022/02/13 02:02:55;;;;;;;;;;;;;;;-4.65;100.00;101226.52;1729822;82;20695;-71
2022/02/13 02:05:27;;;;;;;;;;;;;;;-4.66;100.00;101233.73;1718322;82;20103;-71
2022/02/13 02:07:56;;;;;;;;;;;;;;;-4.68;100.00;101226.37;1704261;81;20107;-71
2022/02/13 02:10:25;;;;;;;;;;;;;;;-4.70;100.00;101223.53;1677103;85;20146;-70
2022/02/13 02:12:56;;;;;;;;;;;;;;;-4.77;100.00;101223.39;1684300;85;20232;-71
2022/02/13 02:15:22;;;;;;;;;;;;;;;-4.88;100.00;101214.41;1660809;84;20102;-70
2022/02/13 02:17:53;;;;;;;;;;;;;;;-4.93;100.00;101214.09;1716559;83;20093;-70
2022/02/13 02:20:22;;;;;;;;;;;;;;;-4.96;100.00;101213.10;1718344;83;20165;-70
2022/02/13 02:22:59;;;;;;;;;;;;;;;-4.97;100.00;101210.59;1666419;85;20087;-68
2022/02/13 02:25:29;;;;;;;;;;;;;;;-5.02;100.00;101211.95;1708750;83;20089;-70
2022/02/13 02:27:58;;;;;;;;;;;;;;;-5.03;100.00;101210.78;1712470;83;21167;-72
2022/02/13 02:30:27;;;;;;;;;;;;;;;-5.07;100.00;101205.45;1698932;83;20143;-72
2022/02/13 02:32:55;;;;;;;;;;;;;;;-5.07;100.00;101206.28;1744277;82;20485;-71
2022/02/13 02:35:23;;;;;;;;;;;;;;;-5.07;100.00;101210.30;1746795;81;20113;-72
2022/02/13 02:37:56;;;;;;;;;;;;;;;-5.07;100.00;101210.80;1742949;81;20192;-70
2022/02/13 02:40:20;;;;;;;;;;;;;;;-5.08;100.00;101204.61;1740605;81;21889;-70
2022/02/13 02:42:48;;;;;;;;;;;;;;;-5.11;100.00;101208.14;1748324;82;20139;-70
2022/02/13 02:45:16;;;;;;;;;;;;;;;-5.11;100.00;101212.16;1751570;82;20126;-72
2022/02/13 02:47:44;;;;;;;;;;;;;;;-5.09;100.00;101212.81;1725516;82;20178;-72
2022/02/13 02:50:15;;;;;;;;;;;;;;;-5.09;100.00;101208.30;1739728;82;20192;-70
2022/02/13 02:52:42;;;;;;;;;;;;;;;-5.09;100.00;101216.33;1746033;82;21136;-70
2022/02/13 02:55:10;;;;;;;;;;;;;;;-5.09;100.00;101221.69;1739966;82;20432;-71
2022/02/13 02:57:50;;;;;;;;;;;;;;;-5.09;100.00;101228.89;1723543;82;20092;-71
2022/02/13 03:00:09;;;;;;;;;;;;;;;-5.08;100.00;101215.83;1721869;83;20668;-70
2022/02/13 03:02:38;;;;;;;;;;;;;;;-5.11;100.00;101211.66;1746984;82;20087;-70
2022/02/13 03:05:05;;;;;;;;;;;;;;;-5.14;100.00;101221.37;1751305;82;21239;-70
2022/02/13 03:07:34;;;;;;;;;;;;;;;-5.17;100.00;101218.20;1751289;82;20429;-70
2022/02/13 03:10:01;;;;;;;;;;;;;;;-5.22;100.00;101209.88;1750900;82;20166;-70
2022/02/13 03:12:34;;;;;;;;;;;;;;;-5.28;100.00;101210.57;1751136;82;20123;-70
2022/02/13 03:15:05;;;;;;;;;;;;;;;-5.40;100.00;101208.26;1750993;82;20110;-70
2022/02/13 03:17:27;;;;;;;;;;;;;;;-5.51;100.00;101211.30;1749707;81;21124;-70
2022/02/13 03:19:53;;;;;;;;;;;;;;;-5.60;100.00;101206.96;1751074;82;20087;-69
2022/02/13 03:22:26;;;;;;;;;;;;;;;-5.70;100.00;101201.80;1751057;82;20087;-70
2022/02/13 03:25:01;;;;;;;;;;;;;;;-5.76;100.00;101209.16;1750250;82;20625;-72
2022/02/13 03:27:37;;;;;;;;;;;;;;;-5.79;100.00;101204.68;1723867;82;20159;-72
2022/02/13 03:30:01;;;;;;;;;;;;;;;-5.80;100.00;101209.19;1747834;82;21092;-71
2022/02/13 03:32:34;;;;;;;;;;;;;;;-5.80;100.00;101215.05;1751090;82;20131;-71
2022/02/13 03:35:04;;;;;;;;;;;;;;;-5.83;100.00;101205.52;1749917;82;20083;-71
2022/02/13 03:37:31;;;;;;;;;;;;;;;-5.81;100.00;101204.02;1750760;82;20082;-71
2022/02/13 03:40:04;;;;;;;;;;;;;;;-5.78;100.00;101195.66;1750886;82;20430;-71
2022/02/13 03:42:29;;;;;;;;;;;;;;;-5.75;100.00;101199.30;1750527;81;21059;-71
2022/02/13 03:45:01;;;;;;;;;;;;;;;-5.71;100.00;101201.46;1750892;82;20119;-70
2022/02/13 03:47:32;;;;;;;;;;;;;;;-5.62;100.00;101203.63;1751085;82;20114;-70
2022/02/13 03:49:59;;;;;;;;;;;;;;;-5.53;100.00;101206.61;1749231;82;20174;-70
2022/02/13 03:52:27;;;;;;;;;;;;;;;-5.48;100.00;101198.08;1742846;82;20091;-70
2022/02/13 03:54:59;;;;;;;;;;;;;;;-5.44;100.00;101212.28;1751380;80;22312;-70
2022/02/13 03:57:28;;;;;;;;;;;;;;;-5.42;100.00;101210.27;1790207;80;20479;-71
2022/02/13 04:00:00;;;;;;;;;;;;;;;-5.40;100.00;101206.92;1790000;80;20475;-71
2022/02/13 04:02:26;;;;;;;;;;;;;;;-5.40;100.00;101204.24;1781319;80;20112;-70
2022/02/13 04:04:57;;;;;;;;;;;;;;;-5.43;100.00;101197.06;1789476;80;20116;-69
2022/02/13 04:07:28;;;;;;;;;;;;;;;-5.51;100.00;101196.58;1790008;80;21328;-69
2022/02/13 04:09:55;;;;;;;;;;;;;;;-5.60;100.00;101198.94;1790107;80;20448;-70
2022/02/13 04:12:26;;;;;;;;;;;;;;;-5.70;100.00;101200.45;1785352;80;20096;-70
2022/02/13 04:14:56;;;;;;;;;;;;;;;-5.80;100.00;101193.64;1789032;80;20580;-69
2022/02/13 04:17:23;;;;;;;;;;;;;;;-5.88;100.00;101197.66;1789648;80;20136;-71
2022/02/13 04:19:50;;;;;;;;;;;;;;;-5.94;100.00;101196.53;1790186;80;21167;-68
2022/02/13 04:22:22;;;;;;;;;;;;;;;-6.04;100.00;101180.66;1771508;80;20115;-68
2022/02/13 04:24:51;;;;;;;;;;;;;;;-6.09;100.00;101186.17;1789076;80;20072;-68
2022/02/13 04:27:15;;;;;;;;;;;;;;;-6.17;100.00;101185.67;1692230;83;20074;-68
2022/02/13 04:29:44;;;;;;;;;;;;;;;-6.22;100.00;101188.01;1728215;83;20439;-67
2022/02/13 04:32:13;;;;;;;;;;;;;;;-6.25;100.00;101183.00;1728224;83;21078;-68
2022/02/13 04:34:47;;;;;;;;;;;;;;;-6.29;100.00;101179.48;1727403;83;20109;-68
2022/02/13 04:37:16;;;;;;;;;;;;;;;-6.36;100.00;101185.52;1726576;81;20097;-68
2022/02/13 04:39:40;;;;;;;;;;;;;;;-6.39;100.00;101190.37;1727884;83;20117;-68
2022/02/13 04:42:12;;;;;;;;;;;;;;;-6.39;100.00;101185.02;1728156;83;20451;-67
2022/02/13 04:44:38;;;;;;;;;;;;;;;-6.40;100.00;101184.19;1727581;83;20595;-68
2022/02/13 04:47:07;;;;;;;;;;;;;;;-6.41;100.00;101182.52;1728489;83;20148;-68
2022/02/13 04:49:36;;;;;;;;;;;;;;;-6.44;100.00;101182.01;1728285;83;20121;-68
2022/02/13 04:52:08;;;;;;;;;;;;;;;-6.47;100.00;101183.67;1704662;83;20135;-68
2022/02/13 04:54:36;;;;;;;;;;;;;;;-6.49;100.00;101183.00;1760031;81;20114;-67
2022/02/13 04:57:04;;;;;;;;;;;;;;;-6.52;100.00;101179.33;1732505;82;20588;-68
2022/02/13 04:59:33;;;;;;;;;;;;;;;-6.54;100.00;101174.65;1732738;83;20071;-68
2022/02/13 05:02:02;;;;;;;;;;;;;;;-6.58;100.00;101172.80;1732844;83;20080;-68
2022/02/13 05:04:36;;;;;;;;;;;;;;;-6.61;100.00;101173.63;1715894;83;20116;-68
2022/02/13 05:07:02;;;;;;;;;;;;;;;-6.67;100.00;101169.28;1732677;82;20124;-68
2022/02/13 05:09:30;;;;;;;;;;;;;;;-6.70;100.00;101181.63;1732580;83;20893;-69
2022/02/13 05:12:03;;;;;;;;;;;;;;;-6.70;100.00;101177.62;1732632;83;20119;-68
2022/02/13 05:14:29;;;;;;;;;;;;;;;-6.69;100.00;101180.62;1715763;83;20107;-68
2022/02/13 05:16:55;;;;;;;;;;;;;;;-6.69;100.00;101176.63;1732814;83;20111;-67
2022/02/13 05:19:28;;;;;;;;;;;;;;;-6.67;100.00;101168.45;1733242;82;20087;-67
2022/02/13 05:22:02;;;;;;;;;;;;;;;-6.64;100.00;101177.97;1723376;82;21165;-68
2022/02/13 05:24:25;;;;;;;;;;;;;;;-6.67;100.00;101178.63;1717014;83;20109;-68
2022/02/13 05:26:54;;;;;;;;;;;;;;;-6.65;100.00;101183.81;1733389;82;20173;-72
2022/02/13 05:29:24;;;;;;;;;;;;;;;-6.59;100.00;101185.83;1706361;82;20152;-70
2022/02/13 05:31:50;;;;;;;;;;;;;;;-6.46;100.00;101187.52;1716885;82;20192;-69
2022/02/13 05:34:28;;;;;;;;;;;;;;;-6.30;100.00;101175.98;1711808;82;20099;-69
2022/02/13 05:36:52;;;;;;;;;;;;;;;-6.14;100.00;101179.98;1739797;82;20086;-67
2022/02/13 05:39:20;;;;;;;;;;;;;;;-6.00;100.00;101174.47;1708525;83;20430;-70
2022/02/13 05:41:53;;;;;;;;;;;;;;;-5.87;100.00;101177.94;1692345;83;20085;-69
2022/02/13 05:44:35;;;;;;;;;;;;;;;-5.79;100.00;101172.08;1715322;83;20109;-68
2022/02/13 05:46:50;;;;;;;;;;;;;;;-5.73;100.00;101171.88;1708320;83;21827;-68
2022/02/13 05:49:27;;;;;;;;;;;;;;;-5.70;100.00;101176.37;1749841;82;20099;-68
2022/02/13 05:51:56;;;;;;;;;;;;;;;-5.66;100.00;101176.88;1715388;83;20460;-67
2022/02/13 05:54:20;;;;;;;;;;;;;;;-5.58;100.00;101174.18;1688339;84;20529;-67
2022/02/13 05:56:49;;;;;;;;;;;;;;;-5.47;100.00;101181.02;1689031;85;20446;-66
2022/02/13 05:59:16;;;;;;;;;;;;;;;-5.40;100.00;101181.49;1689168;84;21181;-68
2022/02/13 06:01:45;;;;;;;;;;;;;;;-5.28;100.00;101174.43;1689100;85;21254;-66
2022/02/13 06:04:15;;;;;;;;;;;;;;;-5.20;100.00;101181.09;1699642;83;20425;-67
2022/02/13 06:06:44;;;;;;;;;;;;;;;-5.11;100.00;101176.00;1685692;83;20133;-68
2022/02/13 06:09:11;;;;;;;;;;;;;;;-5.00;100.00;101177.80;1700708;83;20085;-67
2022/02/13 06:11:42;;;;;;;;;;;;;;;-4.90;100.00;101178.09;1709431;83;21374;-67
2022/02/13 06:14:10;;;;;;;;;;;;;;;-4.79;100.00;101182.55;1722540;83;20101;-64
2022/02/13 06:16:44;;;;;;;;;;;;;;;-4.70;100.00;101176.64;1756531;81;20159;-65
2022/02/13 06:19:14;;;;;;;;;;;;;;;-4.59;100.00;101183.41;1776847;80;20677;-66
2022/02/13 06:21:42;;;;;;;;;;;;;;;-4.50;100.00;101176.48;1760536;80;20112;-65
2022/02/13 06:24:09;;;;;;;;;;;;;;;-4.37;100.00;101171.88;1790192;80;21161;-65
2022/02/13 06:26:39;;;;;;;;;;;;;;;-4.27;100.00;101170.30;1790048;80;20084;-66
2022/02/13 06:29:11;;;;;;;;;;;;;;;-4.18;100.00;101171.90;1756261;80;20092;-70
2022/02/13 06:31:45;;;;;;;;;;;;;;;-4.08;100.00;101169.80;1782955;80;20090;-64
2022/02/13 06:34:16;;;;;;;;;;;;;;;-3.99;100.00;101166.84;1737161;80;20163;-66
2022/02/13 06:36:47;;;;;;;;;;;;;;;-3.89;100.00;101168.44;1720079;82;21165;-64
2022/02/13 06:39:19;;;;;;;;;;;;;;;-3.80;100.00;101163.31;1691466;84;20174;-66
2022/02/13 06:41:45;;;;;;;;;;;;;;;-3.71;100.00;101160.88;1719063;83;20440;-65
2022/02/13 06:44:13;;;;;;;;;;;;;;;-3.64;100.00;101160.47;1729101;82;20140;-65
2022/02/13 06:46:46;;;;;;;;;;;;;;;-3.54;100.00;101154.83;1751356;80;20489;-65
2022/02/13 06:49:14;;;;;;;;;;;;;;;-3.42;100.00;101160.03;1771547;80;21043;-65
2022/02/13 06:51:50;;;;;;;;;;;;;;;-3.01;100.00;101163.08;1763130;80;20106;-65
2022/02/13 06:54:19;;;;;;;;;;;;;;;-2.47;100.00;101153.22;1774458;80;20111;-67
2022/02/13 06:56:47;;;;;;;;;;;;;;;-2.17;100.00;101153.38;1761999;80;20115;-68
2022/02/13 06:59:21;;;;;;;;;;;;;;;-2.09;100.00;101155.11;1760490;80;20196;-70
2022/02/13 07:01:45;;;;;;;;;;;;;;;-2.02;100.00;101155.48;1764237;80;21082;-70
2022/02/13 07:04:11;;;;;;;;;;;;;;;-1.67;100.00;101155.52;1761289;80;20418;-69
2022/02/13 07:06:41;;;;;;;;;;;;;;;-1.11;100.00;101155.41;1760205;80;20108;-70
2022/02/13 07:09:08;;;;;;;;;;;;;;;-0.57;100.00;101146.45;1754608;80;20119;-68
2022/02/13 07:11:51;;;;;;;;;;;;;;;0.06;100.00;101150.46;1857018;77;20165;-67
2022/02/13 07:14:23;;;;;;;;;;;;;;;0.33;100.00;101153.47;1824427;78;20082;-67
2022/02/13 07:16:53;;;;;;;;;;;;;;;0.65;100.00;101150.38;1819972;78;21139;-65
2022/02/13 07:19:19;;;;;;;;;;;;;;;0.98;97.25;101142.16;1824908;78;20436;-66
2022/02/13 07:21:51;;;;;;;;;;;;;;;1.17;96.69;101148.51;1824483;78;20152;-66
2022/02/13 07:24:15;;;;;;;;;;;;;;;1.37;94.18;101139.47;1823975;78;20145;-70
2022/02/13 07:26:41;;;;;;;;;;;;;;;1.55;92.93;101140.92;1824910;78;20122;-71
2022/02/13 07:29:14;;;;;;;;;;;;;;;1.77;90.48;101138.15;1818257;78;20117;-76
2022/02/13 07:31:44;;;;;;;;;;;;;;;1.96;89.18;101138.53;1823194;78;20109;-76
2022/02/13 07:34:10;;;;;;;;;;;;;;;2.05;86.39;101130.95;1824490;78;20447;-71
2022/02/13 07:36:39;;;;;;;;;;;;;;;2.17;83.88;101135.97;1818630;78;20117;-68
2022/02/13 07:39:07;;;;;;;;;;;;;;;2.22;84.40;101141.55;1786199;79;20102;-69
2022/02/13 07:41:34;;;;;;;;;;;;;;;2.46;85.12;101129.52;1792033;79;21628;-70
2022/02/13 07:44:00;;;;;;;;;;;;;;;2.75;82.28;101125.26;1789260;80;20106;-69
2022/02/13 07:46:29;;;;;;;;;;;;;;;2.98;81.31;101130.80;1791409;80;20121;-70
2022/02/13 07:48:55;;;;;;;;;;;;;;;3.25;78.74;101126.70;1787994;79;20148;-70
2022/02/13 07:51:27;;;;;;;;;;;;;;;3.28;76.89;101136.27;1787595;79;20152;-69
2022/02/13 07:53:52;;;;;;;;;;;;;;;3.23;76.40;101122.55;1784586;80;21542;-69
2022/02/13 07:56:23;;;;;;;;;;;;;;;3.22;76.34;101133.94;1790117;80;20095;-70
2022/02/13 07:58:49;;;;;;;;;;;;;;;3.22;72.86;101136.66;1750784;79;20109;-70
2022/02/13 08:01:19;;;;;;;;;;;;;;;3.08;73.45;101124.84;1810220;79;20129;-69
2022/02/13 08:03:51;;;;;;;;;;;;;;;3.05;71.82;101134.27;1770509;80;20143;-69
2022/02/13 08:06:18;;;;;;;;;;;;;;;2.89;71.33;101124.85;1788837;79;21103;-72
2022/02/13 08:08:50;;;;;;;;;;;;;;;2.81;71.60;101137.91;1775196;79;20460;-71
2022/02/13 08:11:19;;;;;;;;;;;;;;;2.73;71.41;101130.08;1792963;78;20423;-70
2022/02/13 08:13:45;;;;;;;;;;;;;;;;;;1793321;79;20106;-68
2022/02/13 08:16:14;;;;;;;;;;;;;;;2.97;71.62;101127.26;1778582;80;20094;-70
2022/02/13 08:18:41;;;;;;;;;;;;;;;3.22;71.25;101123.09;1794093;79;21158;-72
2022/02/13 08:21:08;;;;;;;;;;;;;;;3.40;70.62;101124.11;1793762;80;20495;-72
2022/02/13 08:23:35;;;;;;;;;;;;;;;3.65;69.83;101120.69;1793415;80;20140;-72
2022/02/13 08:26:02;;;;;;;;;;;;;;;3.85;68.57;101123.93;1793482;80;20590;-72
2022/02/13 08:28:36;;;;;;;;;;;;;;;4.03;67.16;101111.33;1792975;80;20127;-71
2022/02/13 08:31:01;;;;;;;;;;;;;;;4.00;65.24;101116.70;1793080;80;21148;-72
2022/02/13 08:33:30;;;;;;;;;;;;;;;3.94;66.07;101108.95;1794317;79;20100;-70
2022/02/13 08:36:01;;;;;;;;;;;;;;;3.95;64.53;101110.60;1793092;80;20419;-72
2022/02/13 08:38:26;;;;;;;;;;;;;;;3.98;64.99;101115.57;1790864;79;20114;-74
2022/02/13 08:40:54;;;;;;;;;;;;;;;4.14;63.93;101114.55;1793230;80;20477;-70
2022/02/13 08:43:21;;;;;;;;;;;;;;;4.14;63.31;101111.84;1793269;80;21513;-70
2022/02/13 08:45:54;;;;;;;;;;;;;;;4.07;63.58;101110.59;1793609;80;20115;-71
2022/02/13 08:48:22;;;;;;;;;;;;;;;4.11;64.28;101109.06;1788641;79;20426;-73
2022/02/13 08:50:53;;;;;;;;;;;;;;;4.21;62.48;101104.40;1783714;79;20156;-71
2022/02/13 08:53:20;;;;;;;;;;;;;;;4.25;63.20;101111.84;1793777;80;20106;-72
2022/02/13 08:55:47;;;;;;;;;;;;;;;4.40;61.08;101098.31;1787395;80;20104;-72
2022/02/13 08:58:14;;;;;;;;;;;;;;;4.37;61.65;101111.84;1793761;79;20113;-71
2022/02/13 09:00:42;;;;;;;;;;;;;;;4.31;61.99;101106.83;1793820;80;20116;-69
2022/02/13 09:03:11;;;;;;;;;;;;;;;4.37;62.40;101103.69;1793568;80;20101;-69
2022/02/13 09:05:40;;;;;;;;;;;;;;;4.45;61.04;101101.15;1793037;79;20094;-70
2022/02/13 09:08:12;;;;;;;;;;;;;;;4.45;61.67;101106.59;1793398;80;21547;-71
2022/02/13 09:10:43;;;;;;;;;;;;;;;4.47;60.86;101098.48;1793658;79;20417;-70
2022/02/13 09:13:15;;;;;;;;;;;;;;;4.64;60.08;101103.47;1774285;80;20851;-72
2022/02/13 09:15:39;;;;;;;;;;;;;;;4.68;60.56;101094.83;1794232;80;20110;-72
2022/02/13 09:18:15;;;;;;;;;;;;;;;4.81;61.33;101098.12;1793954;80;20065;-72
2022/02/13 09:20:44;;;;;;;;;;;;;;;4.97;60.53;101097.91;1743003;80;21107;-73
2022/02/13 09:23:08;;;;;;;;;;;;;;;5.11;59.77;101099.81;1788565;80;20407;-71
2022/02/13 09:25:34;;;;;;;;;;;;;;;5.24;59.03;101089.44;1793708;80;20084;-70
2022/02/13 09:28:00;;;;;;;;;;;;;;;5.32;58.26;101089.59;1794420;80;20116;-72
2022/02/13 09:30:30;;;;;;;;;;;;;;;5.33;57.81;101079.52;1767605;80;20442;-72
2022/02/13 09:32:57;;;;;;;;;;;;;;;5.41;57.45;101089.48;1796427;78;21115;-72
2022/02/13 09:35:23;;;;;;;;;;;;;;;5.50;57.04;101080.39;1772312;80;20084;-73
2022/02/13 09:37:52;;;;;;;;;;;;;;;5.54;57.42;101090.55;1802608;79;20149;-71
2022/02/13 09:40:19;;;;;;;;;;;;;;;5.57;56.81;101076.44;1795950;78;20123;-72
2022/02/13 09:42:49;;;;;;;;;;;;;;;5.57;56.97;101070.99;1767388;80;20143;-72
2022/02/13 09:45:19;;;;;;;;;;;;;;;5.59;56.41;101059.85;1792965;80;21178;-70
2022/02/13 09:47:47;;;;;;;;;;;;;;;5.53;55.36;101062.19;1793693;80;20119;-77
2022/02/13 09:50:13;;;;;;;;;;;;;;;5.43;56.40;101051.94;1794500;80;20080;-69
2022/02/13 09:52:41;;;;;;;;;;;;;;;5.38;56.71;101060.02;1794451;80;20151;-73
2022/02/13 09:55:09;;;;;;;;;;;;;;;5.46;57.12;101052.81;1767296;80;20111;-77
2022/02/13 10:00:22;;;;;;;;;;;;;;;5.59;56.27;101047.05;1767144;80;20142;-74
2022/02/13 10:02:48;;;;;;;;;;;;;;;5.79;56.56;101045.72;1795463;80;20068;-74
2022/02/13 10:05:21;;;;;;;;;;;;;;;5.93;55.63;101039.72;1794536;80;20107;-72
2022/02/13 10:07:52;;;;;;;;;;;;;;;6.10;55.59;101038.88;1793695;80;20080;-73
2022/02/13 10:10:20;;;;;;;;;;;;;;;6.03;54.50;101031.41;1759619;80;21830;-73
2022/02/13 10:12:53;;;;;;;;;;;;;;;5.95;54.37;101032.66;1790831;80;20749;-74
2022/02/13 10:15:27;;;;;;;;;;;;;;;5.90;54.80;101036.66;1791564;80;20119;-73
2022/02/13 10:17:58;;;;;;;;;;;;;;;5.82;55.39;101031.05;1791109;80;20142;-74
2022/02/13 10:20:26;;;;;;;;;;;;;;;5.87;55.53;101020.23;1790667;80;20147;-73
2022/02/13 10:22:53;;;;;;;;;;;;;;;5.88;55.86;101031.42;1791252;80;21188;-73
2022/02/13 10:25:20;;;;;;;;;;;;;;;5.93;55.56;101017.91;1791294;80;20092;-73
2022/02/13 10:27:51;;;;;;;;;;;;;;;6.04;54.32;101027.07;1791219;80;20112;-77
2022/02/13 10:30:35;;;;;;;;;;;;;;;5.83;54.72;101016.36;1791052;80;20111;-76
2022/02/13 10:33:19;;;;;;;;;;;;;;;5.81;54.11;101028.05;1791052;80;20115;-74
2022/02/13 10:36:11;;;;;;;;;;;;;;;5.86;54.56;101022.67;1791091;80;21556;-72
2022/02/13 10:38:46;;;;;;;;;;;;;;;5.81;54.43;101010.33;1766053;80;20111;-70
2022/02/13 10:41:26;;;;;;;;;;;;;;;5.78;54.96;101001.83;1790623;80;20088;-69
2022/02/13 10:43:58;;;;;;;;;;;;;;;5.68;53.92;101006.61;1790876;80;20192;-71
2022/02/13 10:46:32;;;;;;;;;;;;;;;5.52;54.45;101004.70;1766662;80;20510;-71
2022/02/13 10:48:59;;;;;;;;;;;;;;;5.40;54.72;100996.59;1770543;78;21848;-68
2022/02/13 10:51:25;;;;;;;;;;;;;;;4.91;55.14;100999.54;1800145;78;20108;-71
2022/02/13 10:53:54;;;;;;;;;;;;;;;4.37;56.61;101003.09;1821875;78;20508;-74
2022/02/13 10:56:22;;;;;;;;;;;;;;;4.00;57.90;101001.73;1821450;78;20170;-73
2022/02/13 10:58:55;;;;;;;;;;;;;;;3.76;59.33;100992.76;1822542;78;20078;-77
2022/02/13 11:01:22;;;;;;;;;;;;;;;3.61;60.58;100990.50;1806322;79;21642;-73
2022/02/13 11:04:02;;;;;;;;;;;;;;;3.46;60.68;100992.87;1757652;79;20122;-76
2022/02/13 11:06:25;;;;;;;;;;;;;;;3.21;61.00;100981.66;1807576;79;20163;-74
2022/02/13 11:09:23;;;;;;;;;;;;;;;3.04;61.76;100975.24;1784052;79;20133;-73
2022/02/13 11:11:57;;;;;;;;;;;;;;;2.91;62.15;100975.44;1809256;79;20114;-72
2022/02/13 11:14:43;;;;;;;;;;;;;;;2.74;62.85;100974.45;1746901;81;20570;-72
2022/02/13 11:17:16;;;;;;;;;;;;;;;2.69;63.58;100960.75;1810615;79;20094;-71
2022/02/13 11:19:45;;;;;;;;;;;;;;;2.74;63.61;100936.48;1784554;79;20103;-76
2022/02/13 11:22:20;;;;;;;;;;;;;;;2.70;63.55;100957.81;1801915;79;20463;-78
2022/02/13 11:24:51;;;;;;;;;;;;;;;2.76;64.13;100953.35;1771925;80;20084;-74
2022/02/13 11:27:21;;;;;;;;;;;;;;;2.87;64.48;100947.98;1783723;80;21149;-76
2022/02/13 11:30:01;;;;;;;;;;;;;;;2.87;63.77;100949.33;1790602;80;20121;-74
2022/02/13 11:32:43;;;;;;;;;;;;;;;2.72;63.50;100950.80;1789915;80;20082;-76
2022/02/13 11:35:19;;;;;;;;;;;;;;;2.54;64.16;100949.78;1786787;80;20121;-76
2022/02/13 11:37:48;;;;;;;;;;;;;;;2.45;64.92;100940.31;1755882;81;20121;-75
2022/02/13 11:40:43;;;;;;;;;;;;;;;2.44;65.71;100931.87;1723601;82;20153;-82
2022/02/13 11:43:14;;;;;;;;;;;;;;;2.48;66.17;100938.50;1738156;82;20118;-75
2022/02/13 11:45:45;;;;;;;;;;;;;;;2.53;66.46;100931.03;1705332;84;20429;-77
2022/02/13 11:48:38;;;;;;;;;;;;;;;2.60;66.25;100925.82;1679676;84;20099;-78
2022/02/13 11:51:10;;;;;;;;;;;;;;;2.79;66.52;100919.83;1730086;81;20448;-77
2022/02/13 11:53:39;;;;;;;;;;;;;;;3.10;65.30;100922.77;1757709;81;21148;-79
2022/02/13 11:56:25;;;;;;;;;;;;;;;3.24;64.69;100911.99;1753402;81;20107;-77
2022/02/13 11:58:55;;;;;;;;;;;;;;;3.34;63.13;100907.87;1738216;82;20139;-78
2022/02/13 12:01:39;;;;;;;;;;;;;;;3.33;63.31;100906.22;1737692;82;20132;-71
2022/02/13 12:04:07;;;;;;;;;;;;;;;3.31;62.94;100903.21;1791324;80;20092;-74
2022/02/13 12:06:35;;;;;;;;;;;;;;;3.49;62.66;100908.20;1791063;80;21201;-77
2022/02/13 12:09:10;;;;;;;;;;;;;;;3.49;61.53;100902.25;1767292;80;20145;-90
2022/02/13 12:11:38;;;;;;;;;;;;;;;3.44;61.21;100899.45;1792410;80;20185;-80
2022/02/13 12:14:13;;;;;;;;;;;;;;;3.35;61.48;100895.95;1795056;80;20138;-85
2022/02/13 12:16:56;;;;;;;;;;;;;;;3.31;61.97;100880.67;1793917;80;20113;-75
2022/02/13 12:19:34;;;;;;;;;;;;;;;3.24;61.94;100882.67;1793747;80;21957;-77
2022/02/13 12:22:14;;;;;;;;;;;;;;;3.29;62.12;100876.01;1793973;80;20082;-73
2022/02/13 12:24:39;;;;;;;;;;;;;;;3.80;62.39;100864.38;1790172;80;20133;-77
2022/02/13 12:27:09;;;;;;;;;;;;;;;4.47;58.62;100856.47;1793705;80;20166;-69
2022/02/13 12:29:55;;;;;;;;;;;;;;;4.58;58.37;100859.67;1771290;79;20080;-73
2022/02/13 12:32:28;;;;;;;;;;;;;;;4.74;58.62;100863.99;1779335;79;21081;-77
2022/02/13 12:35:02;;;;;;;;;;;;;;;4.61;58.37;100857.81;1778153;80;20523;-73
2022/02/13 12:37:44;;;;;;;;;;;;;;;4.35;57.81;100862.48;1778395;79;20108;-73
2022/02/13 12:40:21;;;;;;;;;;;;;;;3.94;59.33;100849.47;1776517;79;20423;-71
2022/02/13 12:42:49;;;;;;;;;;;;;;;3.62;60.91;100844.16;1777897;79;20153;-79
2022/02/13 12:45:16;;;;;;;;;;;;;;;3.54;61.53;100849.42;1778810;80;21080;-72
2022/02/13 12:47:58;;;;;;;;;;;;;;;3.50;61.95;100850.13;1753294;80;20068;-72
2022/02/13 12:50:48;;;;;;;;;;;;;;;3.44;62.74;100848.39;1778482;79;20072;-73
2022/02/13 12:53:18;;;;;;;;;;;;;;;3.38;62.75;100846.09;1778004;79;20080;-69